sensor_id;sensor_type;location;lat;lon;timestamp;temperature;humidity
3380;DHT22;1703;51.964;7.642;2023-05-07T00:01:34;16.60;99.90
3380;DHT22;1703;51.964;7.642;2023-05-07T00:04:00;16.60;99.90
3380;DHT22;1703;51.964;7.642;2023-05-07T00:06:27;16.70;99.90
3380;DHT22;1703;51.964;7.642;2023-05-07T00:08:54;16.60;99.90
3380;DHT22;1703;51.964;7.642;2023-05-07T00:11:22;16.60;99.90
3380;DHT22;1703;51.964;7.642;2023-05-07T00:13:49;16.60;99.90
3380;DHT22;1703;51.964;7.642;2023-05-07T00:16:16;16.50;99.90
3380;DHT22;1703;51.964;7.642;2023-05-07T00:18:43;16.50;99.90
3380;DHT22;1703;51.964;7.642;2023-05-07T00:21:10;16.50;99.90
3380;DHT22;1703;51.964;7.642;2023-05-07T00:23:37;16.60;99.90
3380;DHT22;1703;51.964;7.642;2023-05-07T00:26:04;16.60;99.90
3380;DHT22;1703;51.964;7.642;2023-05-07T00:28:32;16.60;99.90
3380;DHT22;1703;51.964;7.642;2023-05-07T00:30:59;16.60;99.90
3380;DHT22;1703;51.964;7.642;2023-05-07T00:33:26;16.60;99.90
3380;DHT22;1703;51.964;7.642;2023-05-07T00:35:53;16.60;99.90
3380;DHT22;1703;51.964;7.642;2023-05-07T00:38:20;16.50;99.90
3380;DHT22;1703;51.964;7.642;2023-05-07T00:40:47;16.50;99.90
3380;DHT22;1703;51.964;7.642;2023-05-07T00:43:14;16.50;99.90
3380;DHT22;1703;51.964;7.642;2023-05-07T00:45:43;16.60;99.90
3380;DHT22;1703;51.964;7.642;2023-05-07T00:48:10;16.60;99.90
3380;DHT22;1703;51.964;7.642;2023-05-07T00:50:36;16.60;99.90
3380;DHT22;1703;51.964;7.642;2023-05-07T00:53:04;16.50;99.90
3380;DHT22;1703;51.964;7.642;2023-05-07T00:55:31;16.50;99.90
3380;DHT22;1703;51.964;7.642;2023-05-07T00:57:58;16.50;99.90
3380;DHT22;1703;51.964;7.642;2023-05-07T01:00:25;16.40;99.90
3380;DHT22;1703;51.964;7.642;2023-05-07T01:02:53;16.40;99.90
3380;DHT22;1703;51.964;7.642;2023-05-07T01:05:22;16.40;99.90
3380;DHT22;1703;51.964;7.642;2023-05-07T01:07:50;16.40;99.90
3380;DHT22;1703;51.964;7.642;2023-05-07T01:10:19;16.30;99.90
3380;DHT22;1703;51.964;7.642;2023-05-07T01:12:46;16.30;99.90
3380;DHT22;1703;51.964;7.642;2023-05-07T01:15:14;16.30;99.90
3380;DHT22;1703;51.964;7.642;2023-05-07T01:17:42;16.30;99.90
3380;DHT22;1703;51.964;7.642;2023-05-07T01:20:18;16.30;99.90
3380;DHT22;1703;51.964;7.642;2023-05-07T01:22:47;16.30;99.90
3380;DHT22;1703;51.964;7.642;2023-05-07T01:25:15;16.30;99.90
3380;DHT22;1703;51.964;7.642;2023-05-07T01:27:46;16.30;99.90
3380;DHT22;1703;51.964;7.642;2023-05-07T01:30:13;16.30;99.90
3380;DHT22;1703;51.964;7.642;2023-05-07T01:32:43;16.30;99.90
3380;DHT22;1703;51.964;7.642;2023-05-07T01:35:12;16.20;99.90
3380;DHT22;1703;51.964;7.642;2023-05-07T01:37:41;16.20;99.90
3380;DHT22;1703;51.964;7.642;2023-05-07T01:40:10;16.10;99.90
3380;DHT22;1703;51.964;7.642;2023-05-07T01:42:37;16.10;99.90
3380;DHT22;1703;51.964;7.642;2023-05-07T01:45:05;16.10;99.90
3380;DHT22;1703;51.964;7.642;2023-05-07T01:47:32;16.10;99.90
3380;DHT22;1703;51.964;7.642;2023-05-07T01:50:00;16.10;99.90
3380;DHT22;1703;51.964;7.642;2023-05-07T01:52:28;16.00;99.90
3380;DHT22;1703;51.964;7.642;2023-05-07T01:54:55;16.10;99.90
3380;DHT22;1703;51.964;7.642;2023-05-07T01:57:23;16.10;99.90
3380;DHT22;1703;51.964;7.642;2023-05-07T01:59:51;16.00;99.90
3380;DHT22;1703;51.964;7.642;2023-05-07T02:02:18;16.00;99.90
3380;DHT22;1703;51.964;7.642;2023-05-07T02:04:45;15.90;99.90
3380;DHT22;1703;51.964;7.642;2023-05-07T02:07:12;15.90;99.90
3380;DHT22;1703;51.964;7.642;2023-05-07T02:09:39;15.90;99.90
3380;DHT22;1703;51.964;7.642;2023-05-07T02:12:06;15.90;99.90
3380;DHT22;1703;51.964;7.642;2023-05-07T02:14:34;15.90;99.90
3380;DHT22;1703;51.964;7.642;2023-05-07T02:17:01;15.90;99.90
3380;DHT22;1703;51.964;7.642;2023-05-07T02:19:28;15.90;99.90
3380;DHT22;1703;51.964;7.642;2023-05-07T02:21:55;15.90;99.90
3380;DHT22;1703;51.964;7.642;2023-05-07T02:24:21;15.90;99.90
3380;DHT22;1703;51.964;7.642;2023-05-07T02:26:48;15.90;99.90
3380;DHT22;1703;51.964;7.642;2023-05-07T02:29:15;15.90;99.90
3380;DHT22;1703;51.964;7.642;2023-05-07T02:31:43;15.90;99.90
3380;DHT22;1703;51.964;7.642;2023-05-07T02:34:10;15.90;99.90
3380;DHT22;1703;51.964;7.642;2023-05-07T02:36:37;15.90;99.90
3380;DHT22;1703;51.964;7.642;2023-05-07T02:39:08;15.90;99.90
3380;DHT22;1703;51.964;7.642;2023-05-07T02:41:35;15.90;99.90
3380;DHT22;1703;51.964;7.642;2023-05-07T02:44:02;16.00;99.90
3380;DHT22;1703;51.964;7.642;2023-05-07T02:46:30;16.00;99.90
3380;DHT22;1703;51.964;7.642;2023-05-07T02:49:03;16.00;99.90
3380;DHT22;1703;51.964;7.642;2023-05-07T02:51:30;15.90;99.90
3380;DHT22;1703;51.964;7.642;2023-05-07T02:53:59;15.90;99.90
3380;DHT22;1703;51.964;7.642;2023-05-07T02:56:27;15.90;99.90
3380;DHT22;1703;51.964;7.642;2023-05-07T02:58:54;15.90;99.90
3380;DHT22;1703;51.964;7.642;2023-05-07T03:01:24;15.80;99.90
3380;DHT22;1703;51.964;7.642;2023-05-07T03:03:58;15.80;99.90
3380;DHT22;1703;51.964;7.642;2023-05-07T03:06:26;15.80;99.90
3380;DHT22;1703;51.964;7.642;2023-05-07T03:08:53;15.80;99.90
3380;DHT22;1703;51.964;7.642;2023-05-07T03:11:20;15.80;99.90
3380;DHT22;1703;51.964;7.642;2023-05-07T03:13:46;15.80;99.90
3380;DHT22;1703;51.964;7.642;2023-05-07T03:16:16;15.80;99.90
3380;DHT22;1703;51.964;7.642;2023-05-07T03:18:43;15.80;99.90
3380;DHT22;1703;51.964;7.642;2023-05-07T03:21:10;15.80;99.90
3380;DHT22;1703;51.964;7.642;2023-05-07T03:23:38;15.80;99.90
3380;DHT22;1703;51.964;7.642;2023-05-07T03:26:05;15.70;99.90
3380;DHT22;1703;51.964;7.642;2023-05-07T03:28:32;15.70;99.90
3380;DHT22;1703;51.964;7.642;2023-05-07T03:31:03;15.70;99.90
3380;DHT22;1703;51.964;7.642;2023-05-07T03:33:33;15.60;99.90
3380;DHT22;1703;51.964;7.642;2023-05-07T03:36:00;15.70;99.90
3380;DHT22;1703;51.964;7.642;2023-05-07T03:38:27;15.60;99.90
3380;DHT22;1703;51.964;7.642;2023-05-07T03:40:56;15.60;99.90
3380;DHT22;1703;51.964;7.642;2023-05-07T03:43:23;15.60;99.90
3380;DHT22;1703;51.964;7.642;2023-05-07T03:45:57;15.50;99.90
3380;DHT22;1703;51.964;7.642;2023-05-07T03:48:26;15.60;99.90
3380;DHT22;1703;51.964;7.642;2023-05-07T03:50:56;15.60;99.90
3380;DHT22;1703;51.964;7.642;2023-05-07T03:53:26;15.60;99.90
3380;DHT22;1703;51.964;7.642;2023-05-07T03:55:53;15.50;99.90
3380;DHT22;1703;51.964;7.642;2023-05-07T03:58:22;15.50;99.90
3380;DHT22;1703;51.964;7.642;2023-05-07T04:00:49;15.60;99.90
3380;DHT22;1703;51.964;7.642;2023-05-07T04:03:26;15.60;99.90
3380;DHT22;1703;51.964;7.642;2023-05-07T04:05:56;15.60;99.90
3380;DHT22;1703;51.964;7.642;2023-05-07T04:08:23;15.60;99.90
3380;DHT22;1703;51.964;7.642;2023-05-07T04:10:55;15.50;99.90
3380;DHT22;1703;51.964;7.642;2023-05-07T04:13:24;15.50;99.90
3380;DHT22;1703;51.964;7.642;2023-05-07T04:15:51;15.50;99.90
3380;DHT22;1703;51.964;7.642;2023-05-07T04:18:19;15.50;99.90
3380;DHT22;1703;51.964;7.642;2023-05-07T04:20:47;15.50;99.90
3380;DHT22;1703;51.964;7.642;2023-05-07T04:23:15;15.50;99.90
3380;DHT22;1703;51.964;7.642;2023-05-07T04:25:42;15.50;99.90
3380;DHT22;1703;51.964;7.642;2023-05-07T04:28:18;15.50;99.90
3380;DHT22;1703;51.964;7.642;2023-05-07T04:30:46;15.50;99.90
3380;DHT22;1703;51.964;7.642;2023-05-07T04:33:14;15.50;99.90
3380;DHT22;1703;51.964;7.642;2023-05-07T04:35:42;15.40;99.90
3380;DHT22;1703;51.964;7.642;2023-05-07T04:38:09;15.40;99.90
3380;DHT22;1703;51.964;7.642;2023-05-07T04:40:36;15.40;99.90
3380;DHT22;1703;51.964;7.642;2023-05-07T04:43:04;15.50;99.90
3380;DHT22;1703;51.964;7.642;2023-05-07T04:45:39;15.50;99.90
3380;DHT22;1703;51.964;7.642;2023-05-07T04:48:09;15.40;99.90
3380;DHT22;1703;51.964;7.642;2023-05-07T04:50:38;15.50;99.90
3380;DHT22;1703;51.964;7.642;2023-05-07T04:53:06;15.50;99.90
3380;DHT22;1703;51.964;7.642;2023-05-07T04:55:33;15.40;99.90
3380;DHT22;1703;51.964;7.642;2023-05-07T04:58:00;15.50;99.90
3380;DHT22;1703;51.964;7.642;2023-05-07T05:00:29;15.50;99.90
3380;DHT22;1703;51.964;7.642;2023-05-07T05:02:57;15.50;99.90
3380;DHT22;1703;51.964;7.642;2023-05-07T05:05:25;15.50;99.90
3380;DHT22;1703;51.964;7.642;2023-05-07T05:07:54;15.50;99.90
3380;DHT22;1703;51.964;7.642;2023-05-07T05:10:21;15.40;99.90
3380;DHT22;1703;51.964;7.642;2023-05-07T05:12:49;15.50;99.90
3380;DHT22;1703;51.964;7.642;2023-05-07T05:15:16;15.50;99.90
3380;DHT22;1703;51.964;7.642;2023-05-07T05:17:42;15.50;99.90
3380;DHT22;1703;51.964;7.642;2023-05-07T05:20:10;15.50;99.90
3380;DHT22;1703;51.964;7.642;2023-05-07T05:22:39;15.50;99.90
3380;DHT22;1703;51.964;7.642;2023-05-07T05:25:07;15.60;99.90
3380;DHT22;1703;51.964;7.642;2023-05-07T05:27:34;15.70;99.90
3380;DHT22;1703;51.964;7.642;2023-05-07T05:30:01;15.80;99.90
3380;DHT22;1703;51.964;7.642;2023-05-07T05:32:30;15.70;99.90
3380;DHT22;1703;51.964;7.642;2023-05-07T05:34:57;15.60;99.90
3380;DHT22;1703;51.964;7.642;2023-05-07T05:37:25;15.50;99.90
3380;DHT22;1703;51.964;7.642;2023-05-07T05:39:54;15.50;99.90
3380;DHT22;1703;51.964;7.642;2023-05-07T05:42:21;15.50;99.90
3380;DHT22;1703;51.964;7.642;2023-05-07T05:44:48;15.60;99.90
3380;DHT22;1703;51.964;7.642;2023-05-07T05:47:15;15.60;99.90
3380;DHT22;1703;51.964;7.642;2023-05-07T05:49:43;15.60;99.90
3380;DHT22;1703;51.964;7.642;2023-05-07T05:52:12;15.60;99.90
3380;DHT22;1703;51.964;7.642;2023-05-07T05:54:39;15.60;99.90
3380;DHT22;1703;51.964;7.642;2023-05-07T05:57:07;15.70;99.90
3380;DHT22;1703;51.964;7.642;2023-05-07T05:59:34;15.80;99.90
3380;DHT22;1703;51.964;7.642;2023-05-07T06:02:01;15.90;99.90
3380;DHT22;1703;51.964;7.642;2023-05-07T06:04:28;15.90;99.90
3380;DHT22;1703;51.964;7.642;2023-05-07T06:06:55;15.90;99.90
3380;DHT22;1703;51.964;7.642;2023-05-07T06:09:24;15.90;99.90
3380;DHT22;1703;51.964;7.642;2023-05-07T06:11:51;15.90;99.90
3380;DHT22;1703;51.964;7.642;2023-05-07T06:14:19;15.90;99.90
3380;DHT22;1703;51.964;7.642;2023-05-07T06:16:46;15.90;99.90
3380;DHT22;1703;51.964;7.642;2023-05-07T06:19:13;15.90;99.90
3380;DHT22;1703;51.964;7.642;2023-05-07T06:21:41;15.90;99.90
3380;DHT22;1703;51.964;7.642;2023-05-07T06:24:08;16.00;99.90
3380;DHT22;1703;51.964;7.642;2023-05-07T06:26:36;15.90;99.90
3380;DHT22;1703;51.964;7.642;2023-05-07T06:29:03;15.80;99.90
3380;DHT22;1703;51.964;7.642;2023-05-07T06:31:31;15.90;99.90
3380;DHT22;1703;51.964;7.642;2023-05-07T06:34:02;16.00;99.90
3380;DHT22;1703;51.964;7.642;2023-05-07T06:36:36;16.00;99.90
3380;DHT22;1703;51.964;7.642;2023-05-07T06:39:18;16.10;99.90
3380;DHT22;1703;51.964;7.642;2023-05-07T06:41:44;16.10;99.90
3380;DHT22;1703;51.964;7.642;2023-05-07T06:44:21;16.10;99.90
3380;DHT22;1703;51.964;7.642;2023-05-07T06:46:59;16.00;99.90
3380;DHT22;1703;51.964;7.642;2023-05-07T06:49:27;16.10;99.90
3380;DHT22;1703;51.964;7.642;2023-05-07T06:51:53;16.20;99.90
3380;DHT22;1703;51.964;7.642;2023-05-07T06:54:21;16.30;99.90
3380;DHT22;1703;51.964;7.642;2023-05-07T06:56:49;16.40;99.90
3380;DHT22;1703;51.964;7.642;2023-05-07T06:59:16;16.40;99.90
3380;DHT22;1703;51.964;7.642;2023-05-07T07:01:45;16.30;99.90
3380;DHT22;1703;51.964;7.642;2023-05-07T07:04:15;16.40;99.90
3380;DHT22;1703;51.964;7.642;2023-05-07T07:06:45;16.50;99.90
3380;DHT22;1703;51.964;7.642;2023-05-07T07:09:13;16.60;99.90
3380;DHT22;1703;51.964;7.642;2023-05-07T07:11:41;16.60;99.90
3380;DHT22;1703;51.964;7.642;2023-05-07T07:14:08;16.50;99.90
3380;DHT22;1703;51.964;7.642;2023-05-07T07:16:42;16.60;99.90
3380;DHT22;1703;51.964;7.642;2023-05-07T07:19:09;16.60;99.90
3380;DHT22;1703;51.964;7.642;2023-05-07T07:21:37;16.70;99.90
3380;DHT22;1703;51.964;7.642;2023-05-07T07:24:05;16.70;99.90
3380;DHT22;1703;51.964;7.642;2023-05-07T07:26:31;16.70;99.90
3380;DHT22;1703;51.964;7.642;2023-05-07T07:28:58;16.80;99.90
3380;DHT22;1703;51.964;7.642;2023-05-07T07:31:25;16.60;99.90
3380;DHT22;1703;51.964;7.642;2023-05-07T07:33:52;16.70;99.90
3380;DHT22;1703;51.964;7.642;2023-05-07T07:36:20;16.70;99.90
3380;DHT22;1703;51.964;7.642;2023-05-07T07:38:48;16.80;99.90
3380;DHT22;1703;51.964;7.642;2023-05-07T07:41:16;16.80;99.90
3380;DHT22;1703;51.964;7.642;2023-05-07T07:43:43;16.80;99.90
3380;DHT22;1703;51.964;7.642;2023-05-07T07:46:12;16.90;99.90
3380;DHT22;1703;51.964;7.642;2023-05-07T07:48:40;17.10;99.90
3380;DHT22;1703;51.964;7.642;2023-05-07T07:51:07;17.20;99.90
3380;DHT22;1703;51.964;7.642;2023-05-07T07:53:34;17.30;99.90
3380;DHT22;1703;51.964;7.642;2023-05-07T07:56:02;17.30;99.90
3380;DHT22;1703;51.964;7.642;2023-05-07T07:58:32;17.40;99.90
3380;DHT22;1703;51.964;7.642;2023-05-07T08:01:01;17.50;99.90
3380;DHT22;1703;51.964;7.642;2023-05-07T08:03:28;17.60;99.90
3380;DHT22;1703;51.964;7.642;2023-05-07T08:05:58;17.50;99.90
3380;DHT22;1703;51.964;7.642;2023-05-07T08:08:25;17.50;99.90
3380;DHT22;1703;51.964;7.642;2023-05-07T08:10:53;17.60;99.90
3380;DHT22;1703;51.964;7.642;2023-05-07T08:13:28;17.60;99.90
3380;DHT22;1703;51.964;7.642;2023-05-07T08:15:55;17.60;99.90
3380;DHT22;1703;51.964;7.642;2023-05-07T08:18:22;17.70;99.90
3380;DHT22;1703;51.964;7.642;2023-05-07T08:20:50;17.70;99.90
3380;DHT22;1703;51.964;7.642;2023-05-07T08:23:21;17.80;99.90
3380;DHT22;1703;51.964;7.642;2023-05-07T08:25:49;17.80;99.90
3380;DHT22;1703;51.964;7.642;2023-05-07T08:28:17;17.80;99.90
3380;DHT22;1703;51.964;7.642;2023-05-07T08:30:46;17.60;99.90
3380;DHT22;1703;51.964;7.642;2023-05-07T08:33:13;17.60;99.90
3380;DHT22;1703;51.964;7.642;2023-05-07T08:35:40;17.70;99.90
3380;DHT22;1703;51.964;7.642;2023-05-07T08:38:08;17.80;99.90
3380;DHT22;1703;51.964;7.642;2023-05-07T08:40:37;17.90;99.90
3380;DHT22;1703;51.964;7.642;2023-05-07T08:43:08;18.00;99.90
3380;DHT22;1703;51.964;7.642;2023-05-07T08:45:39;18.00;99.90
3380;DHT22;1703;51.964;7.642;2023-05-07T08:48:15;17.90;99.90
3380;DHT22;1703;51.964;7.642;2023-05-07T08:50:44;18.00;99.90
3380;DHT22;1703;51.964;7.642;2023-05-07T08:53:11;18.00;99.90
3380;DHT22;1703;51.964;7.642;2023-05-07T08:55:39;18.10;99.90
3380;DHT22;1703;51.964;7.642;2023-05-07T08:58:06;18.10;99.90
3380;DHT22;1703;51.964;7.642;2023-05-07T09:00:37;18.10;99.90
3380;DHT22;1703;51.964;7.642;2023-05-07T09:03:06;18.20;99.90
3380;DHT22;1703;51.964;7.642;2023-05-07T09:05:35;18.30;99.90
3380;DHT22;1703;51.964;7.642;2023-05-07T09:08:03;18.30;99.90
3380;DHT22;1703;51.964;7.642;2023-05-07T09:10:33;18.40;99.90
3380;DHT22;1703;51.964;7.642;2023-05-07T09:13:00;18.40;99.90
3380;DHT22;1703;51.964;7.642;2023-05-07T09:15:28;18.40;99.90
3380;DHT22;1703;51.964;7.642;2023-05-07T09:17:59;18.30;99.90
3380;DHT22;1703;51.964;7.642;2023-05-07T09:20:32;18.30;99.90
3380;DHT22;1703;51.964;7.642;2023-05-07T09:23:01;18.20;99.90
3380;DHT22;1703;51.964;7.642;2023-05-07T09:25:30;18.30;99.90
3380;DHT22;1703;51.964;7.642;2023-05-07T09:28:01;18.40;99.90
3380;DHT22;1703;51.964;7.642;2023-05-07T09:30:28;18.50;99.90
3380;DHT22;1703;51.964;7.642;2023-05-07T09:32:58;18.60;99.90
3380;DHT22;1703;51.964;7.642;2023-05-07T09:35:26;18.70;99.90
3380;DHT22;1703;51.964;7.642;2023-05-07T09:37:58;18.80;99.90
3380;DHT22;1703;51.964;7.642;2023-05-07T09:40:29;18.90;99.90
3380;DHT22;1703;51.964;7.642;2023-05-07T09:43:08;19.10;99.90
3380;DHT22;1703;51.964;7.642;2023-05-07T09:45:36;19.10;99.90
3380;DHT22;1703;51.964;7.642;2023-05-07T09:48:05;19.10;99.90
3380;DHT22;1703;51.964;7.642;2023-05-07T09:50:36;19.00;99.90
3380;DHT22;1703;51.964;7.642;2023-05-07T09:53:04;19.00;99.90
3380;DHT22;1703;51.964;7.642;2023-05-07T09:55:32;18.90;99.90
3380;DHT22;1703;51.964;7.642;2023-05-07T09:58:00;19.10;99.90
3380;DHT22;1703;51.964;7.642;2023-05-07T10:00:29;19.20;99.90
3380;DHT22;1703;51.964;7.642;2023-05-07T10:03:06;19.30;99.90
3380;DHT22;1703;51.964;7.642;2023-05-07T10:05:41;19.30;99.90
3380;DHT22;1703;51.964;7.642;2023-05-07T10:08:10;19.40;99.90
3380;DHT22;1703;51.964;7.642;2023-05-07T10:10:41;19.50;99.90
3380;DHT22;1703;51.964;7.642;2023-05-07T10:13:12;19.50;99.90
3380;DHT22;1703;51.964;7.642;2023-05-07T10:15:44;19.40;99.90
3380;DHT22;1703;51.964;7.642;2023-05-07T10:18:12;19.40;99.90
3380;DHT22;1703;51.964;7.642;2023-05-07T10:20:43;19.40;99.90
3380;DHT22;1703;51.964;7.642;2023-05-07T10:23:14;19.40;99.90
3380;DHT22;1703;51.964;7.642;2023-05-07T10:25:47;19.60;99.90
3380;DHT22;1703;51.964;7.642;2023-05-07T10:28:20;19.80;99.90
3380;DHT22;1703;51.964;7.642;2023-05-07T10:30:59;20.00;99.90
3380;DHT22;1703;51.964;7.642;2023-05-07T10:33:36;20.00;99.90
3380;DHT22;1703;51.964;7.642;2023-05-07T10:36:05;20.10;99.90
3380;DHT22;1703;51.964;7.642;2023-05-07T10:38:33;20.20;99.90
3380;DHT22;1703;51.964;7.642;2023-05-07T10:41:02;20.20;99.90
3380;DHT22;1703;51.964;7.642;2023-05-07T10:43:43;20.30;99.90
3380;DHT22;1703;51.964;7.642;2023-05-07T10:46:18;20.30;99.90
3380;DHT22;1703;51.964;7.642;2023-05-07T10:49:10;20.20;99.90
3380;DHT22;1703;51.964;7.642;2023-05-07T10:52:12;20.20;99.90
3380;DHT22;1703;51.964;7.642;2023-05-07T10:54:46;20.20;99.90
3380;DHT22;1703;51.964;7.642;2023-05-07T10:57:34;20.20;99.90
3380;DHT22;1703;51.964;7.642;2023-05-07T11:03:11;20.20;99.90
3380;DHT22;1703;51.964;7.642;2023-05-07T11:05:46;20.10;99.90
3380;DHT22;1703;51.964;7.642;2023-05-07T11:08:19;20.20;99.90
3380;DHT22;1703;51.964;7.642;2023-05-07T11:10:54;20.20;99.90
3380;DHT22;1703;51.964;7.642;2023-05-07T11:13:45;20.30;99.90
3380;DHT22;1703;51.964;7.642;2023-05-07T11:16:22;20.20;99.90
3380;DHT22;1703;51.964;7.642;2023-05-07T11:18:56;20.20;99.90
3380;DHT22;1703;51.964;7.642;2023-05-07T11:21:34;20.50;99.90
3380;DHT22;1703;51.964;7.642;2023-05-07T11:24:24;20.50;99.90
3380;DHT22;1703;51.964;7.642;2023-05-07T11:27:03;20.50;99.90
3380;DHT22;1703;51.964;7.642;2023-05-07T11:29:33;20.60;99.90
3380;DHT22;1703;51.964;7.642;2023-05-07T11:32:06;20.60;99.90
3380;DHT22;1703;51.964;7.642;2023-05-07T11:34:42;20.60;99.90
3380;DHT22;1703;51.964;7.642;2023-05-07T11:37:11;20.70;99.90
3380;DHT22;1703;51.964;7.642;2023-05-07T11:39:51;20.70;99.90
3380;DHT22;1703;51.964;7.642;2023-05-07T11:42:29;20.80;99.90
3380;DHT22;1703;51.964;7.642;2023-05-07T11:44:58;20.90;99.90
3380;DHT22;1703;51.964;7.642;2023-05-07T11:47:25;20.90;99.90
3380;DHT22;1703;51.964;7.642;2023-05-07T11:49:53;21.00;99.90
3380;DHT22;1703;51.964;7.642;2023-05-07T11:52:23;21.20;99.90
3380;DHT22;1703;51.964;7.642;2023-05-07T11:54:51;21.30;99.90
3380;DHT22;1703;51.964;7.642;2023-05-07T11:57:18;21.40;99.90
3380;DHT22;1703;51.964;7.642;2023-05-07T11:59:45;21.40;99.90
3380;DHT22;1703;51.964;7.642;2023-05-07T12:02:15;21.40;99.90
3380;DHT22;1703;51.964;7.642;2023-05-07T12:04:42;21.50;99.90
3380;DHT22;1703;51.964;7.642;2023-05-07T12:07:11;21.50;99.90
3380;DHT22;1703;51.964;7.642;2023-05-07T12:09:39;21.40;99.90
3380;DHT22;1703;51.964;7.642;2023-05-07T12:12:06;21.50;99.90
3380;DHT22;1703;51.964;7.642;2023-05-07T12:14:34;21.50;99.90
3380;DHT22;1703;51.964;7.642;2023-05-07T12:17:03;21.60;99.90
3380;DHT22;1703;51.964;7.642;2023-05-07T12:19:33;21.70;99.90
3380;DHT22;1703;51.964;7.642;2023-05-07T12:22:01;21.80;99.90
3380;DHT22;1703;51.964;7.642;2023-05-07T12:24:29;21.80;99.90
3380;DHT22;1703;51.964;7.642;2023-05-07T12:26:55;21.90;99.90
3380;DHT22;1703;51.964;7.642;2023-05-07T12:29:22;22.00;99.90
3380;DHT22;1703;51.964;7.642;2023-05-07T12:31:49;22.00;99.90
3380;DHT22;1703;51.964;7.642;2023-05-07T12:34:16;22.10;99.90
3380;DHT22;1703;51.964;7.642;2023-05-07T12:36:48;21.90;99.90
3380;DHT22;1703;51.964;7.642;2023-05-07T12:39:14;21.80;99.90
3380;DHT22;1703;51.964;7.642;2023-05-07T12:41:54;21.90;99.90
3380;DHT22;1703;51.964;7.642;2023-05-07T12:44:22;21.70;99.90
3380;DHT22;1703;51.964;7.642;2023-05-07T12:46:49;21.80;99.90
3380;DHT22;1703;51.964;7.642;2023-05-07T12:49:16;21.90;99.90
3380;DHT22;1703;51.964;7.642;2023-05-07T12:51:48;21.90;99.90
3380;DHT22;1703;51.964;7.642;2023-05-07T12:54:27;21.90;99.90
3380;DHT22;1703;51.964;7.642;2023-05-07T12:57:00;21.90;99.90
3380;DHT22;1703;51.964;7.642;2023-05-07T12:59:31;21.90;99.90
3380;DHT22;1703;51.964;7.642;2023-05-07T13:01:58;22.00;99.90
3380;DHT22;1703;51.964;7.642;2023-05-07T13:04:25;22.10;99.90
3380;DHT22;1703;51.964;7.642;2023-05-07T13:06:53;22.20;99.90
3380;DHT22;1703;51.964;7.642;2023-05-07T13:09:26;22.30;99.90
3380;DHT22;1703;51.964;7.642;2023-05-07T13:11:54;22.20;99.90
3380;DHT22;1703;51.964;7.642;2023-05-07T13:14:21;22.30;99.90
3380;DHT22;1703;51.964;7.642;2023-05-07T13:16:48;22.30;99.90
3380;DHT22;1703;51.964;7.642;2023-05-07T13:19:14;22.30;99.90
3380;DHT22;1703;51.964;7.642;2023-05-07T13:21:41;22.30;99.90
3380;DHT22;1703;51.964;7.642;2023-05-07T13:24:09;22.50;99.90
3380;DHT22;1703;51.964;7.642;2023-05-07T13:26:36;22.70;99.90
3380;DHT22;1703;51.964;7.642;2023-05-07T13:29:03;23.40;99.90
3380;DHT22;1703;51.964;7.642;2023-05-07T13:31:30;24.30;99.90
3380;DHT22;1703;51.964;7.642;2023-05-07T13:33:57;25.00;99.90
3380;DHT22;1703;51.964;7.642;2023-05-07T13:36:24;25.60;99.90
3380;DHT22;1703;51.964;7.642;2023-05-07T13:38:50;25.90;99.90
3380;DHT22;1703;51.964;7.642;2023-05-07T13:41:19;26.30;99.90
3380;DHT22;1703;51.964;7.642;2023-05-07T13:43:46;26.60;99.90
3380;DHT22;1703;51.964;7.642;2023-05-07T13:46:13;26.70;99.90
3380;DHT22;1703;51.964;7.642;2023-05-07T13:48:40;26.80;99.90
3380;DHT22;1703;51.964;7.642;2023-05-07T13:51:07;26.10;99.90
3380;DHT22;1703;51.964;7.642;2023-05-07T13:53:34;25.80;99.90
3380;DHT22;1703;51.964;7.642;2023-05-07T13:56:01;25.50;99.90
3380;DHT22;1703;51.964;7.642;2023-05-07T13:58:31;25.10;99.90
3380;DHT22;1703;51.964;7.642;2023-05-07T14:00:58;24.70;99.90
3380;DHT22;1703;51.964;7.642;2023-05-07T14:03:25;24.70;99.90
3380;DHT22;1703;51.964;7.642;2023-05-07T14:05:53;24.90;99.90
3380;DHT22;1703;51.964;7.642;2023-05-07T14:08:20;24.70;99.90
3380;DHT22;1703;51.964;7.642;2023-05-07T14:10:47;24.70;99.90
3380;DHT22;1703;51.964;7.642;2023-05-07T14:13:13;24.60;99.90
3380;DHT22;1703;51.964;7.642;2023-05-07T14:15:42;24.30;99.90
3380;DHT22;1703;51.964;7.642;2023-05-07T14:18:12;24.00;99.90
3380;DHT22;1703;51.964;7.642;2023-05-07T14:20:38;23.70;99.90
3380;DHT22;1703;51.964;7.642;2023-05-07T14:23:05;23.70;99.90
3380;DHT22;1703;51.964;7.642;2023-05-07T14:25:32;23.70;99.90
3380;DHT22;1703;51.964;7.642;2023-05-07T14:27:59;23.50;99.90
3380;DHT22;1703;51.964;7.642;2023-05-07T14:30:26;23.50;99.90
3380;DHT22;1703;51.964;7.642;2023-05-07T14:32:54;23.40;99.90
3380;DHT22;1703;51.964;7.642;2023-05-07T14:35:21;23.20;99.90
3380;DHT22;1703;51.964;7.642;2023-05-07T14:37:48;23.10;99.90
3380;DHT22;1703;51.964;7.642;2023-05-07T14:40:14;22.90;99.90
3380;DHT22;1703;51.964;7.642;2023-05-07T14:42:41;22.90;99.90
3380;DHT22;1703;51.964;7.642;2023-05-07T14:45:09;22.80;99.90
3380;DHT22;1703;51.964;7.642;2023-05-07T14:47:36;22.70;99.90
3380;DHT22;1703;51.964;7.642;2023-05-07T14:50:05;22.70;99.90
3380;DHT22;1703;51.964;7.642;2023-05-07T14:52:32;22.60;99.90
3380;DHT22;1703;51.964;7.642;2023-05-07T14:54:59;22.60;99.90
3380;DHT22;1703;51.964;7.642;2023-05-07T14:57:26;22.60;99.90
3380;DHT22;1703;51.964;7.642;2023-05-07T14:59:53;22.50;99.90
3380;DHT22;1703;51.964;7.642;2023-05-07T15:02:20;22.40;99.90
3380;DHT22;1703;51.964;7.642;2023-05-07T15:04:47;22.30;99.90
3380;DHT22;1703;51.964;7.642;2023-05-07T15:07:15;22.40;99.90
3380;DHT22;1703;51.964;7.642;2023-05-07T15:09:43;22.30;99.90
3380;DHT22;1703;51.964;7.642;2023-05-07T15:12:10;22.20;99.90
3380;DHT22;1703;51.964;7.642;2023-05-07T15:14:37;22.20;99.90
3380;DHT22;1703;51.964;7.642;2023-05-07T15:17:04;22.10;99.90
3380;DHT22;1703;51.964;7.642;2023-05-07T15:19:31;22.10;99.90
3380;DHT22;1703;51.964;7.642;2023-05-07T15:21:58;22.10;99.90
3380;DHT22;1703;51.964;7.642;2023-05-07T15:24:29;22.00;99.90
3380;DHT22;1703;51.964;7.642;2023-05-07T15:26:56;22.00;99.90
3380;DHT22;1703;51.964;7.642;2023-05-07T15:29:24;21.80;99.90
3380;DHT22;1703;51.964;7.642;2023-05-07T15:31:51;21.80;99.90
3380;DHT22;1703;51.964;7.642;2023-05-07T15:34:18;21.80;99.90
3380;DHT22;1703;51.964;7.642;2023-05-07T15:36:45;21.70;99.90
3380;DHT22;1703;51.964;7.642;2023-05-07T15:39:11;21.70;99.90
3380;DHT22;1703;51.964;7.642;2023-05-07T15:41:39;21.60;99.90
3380;DHT22;1703;51.964;7.642;2023-05-07T15:44:06;21.60;99.90
3380;DHT22;1703;51.964;7.642;2023-05-07T15:46:33;21.50;99.90
3380;DHT22;1703;51.964;7.642;2023-05-07T15:49:01;21.50;99.90
3380;DHT22;1703;51.964;7.642;2023-05-07T15:51:28;21.40;99.90
3380;DHT22;1703;51.964;7.642;2023-05-07T15:53:56;21.30;99.90
3380;DHT22;1703;51.964;7.642;2023-05-07T15:56:23;21.30;99.90
3380;DHT22;1703;51.964;7.642;2023-05-07T15:58:52;21.30;99.90
3380;DHT22;1703;51.964;7.642;2023-05-07T16:01:23;21.30;99.90
3380;DHT22;1703;51.964;7.642;2023-05-07T16:03:50;21.30;99.90
3380;DHT22;1703;51.964;7.642;2023-05-07T16:06:17;21.30;99.90
3380;DHT22;1703;51.964;7.642;2023-05-07T16:08:44;21.30;99.90
3380;DHT22;1703;51.964;7.642;2023-05-07T16:11:11;21.30;99.90
3380;DHT22;1703;51.964;7.642;2023-05-07T16:13:38;21.20;99.90
3380;DHT22;1703;51.964;7.642;2023-05-07T16:16:07;21.20;99.90